METAR Data
IDs: Format: Raw Decoded Include TAF

Data at: 1429 UTC 17 Nov 2019

METAR for:KHCR (Heber City Muni, UT, US)
Text:KHCR 171415Z AUTO 00000KT 10SM CLR M07/M08 A3038 RMK AO2
Temperature: -7.0°C ( 19°F)
Dewpoint: -8.0°C ( 18°F) [RH = 93%]
Pressure (altimeter):30.38 inches Hg (1028.9 mb)
Winds:calm
Visibility:10 or more sm (16+ km)
Ceiling:at least 12,000 feet AGL
Clouds:sky clear below 12,000 feet AGL
QC Flag:automated observation with no human augmentation